sensor_id;sensor_type;location;lat;lon;timestamp;pressure;altitude;pressure_sealevel;temperature;humidity
48077;BME280;33854;57.708;12.008;2022-10-15T00:00:35;100243.97;;;10.88;100.00
48077;BME280;33854;57.708;12.008;2022-10-15T00:03:00;100249.13;;;10.90;100.00
48077;BME280;33854;57.708;12.008;2022-10-15T00:05:26;100246.59;;;10.88;100.00
48077;BME280;33854;57.708;12.008;2022-10-15T00:07:52;100230.09;;;10.88;100.00
48077;BME280;33854;57.708;12.008;2022-10-15T00:10:18;100243.22;;;10.86;100.00
48077;BME280;33854;57.708;12.008;2022-10-15T00:12:43;100234.66;;;10.84;100.00
48077;BME280;33854;57.708;12.008;2022-10-15T00:15:09;100233.03;;;10.81;100.00
48077;BME280;33854;57.708;12.008;2022-10-15T00:17:35;100223.53;;;10.80;100.00
48077;BME280;33854;57.708;12.008;2022-10-15T00:20:06;100221.00;;;10.79;100.00
48077;BME280;33854;57.708;12.008;2022-10-15T00:22:32;100222.00;;;10.76;100.00
48077;BME280;33854;57.708;12.008;2022-10-15T00:24:57;100214.09;;;10.78;100.00
48077;BME280;33854;57.708;12.008;2022-10-15T00:27:23;100215.84;;;10.77;100.00
48077;BME280;33854;57.708;12.008;2022-10-15T00:29:48;100210.56;;;10.79;100.00
48077;BME280;33854;57.708;12.008;2022-10-15T00:32:14;100205.34;;;10.79;100.00
48077;BME280;33854;57.708;12.008;2022-10-15T00:34:39;100212.22;;;10.80;100.00
48077;BME280;33854;57.708;12.008;2022-10-15T00:37:06;100210.56;;;10.79;100.00
48077;BME280;33854;57.708;12.008;2022-10-15T00:39:32;100199.19;;;10.80;100.00
48077;BME280;33854;57.708;12.008;2022-10-15T00:41:57;100203.50;;;10.81;100.00
48077;BME280;33854;57.708;12.008;2022-10-15T00:46:51;100190.16;;;10.85;100.00
48077;BME280;33854;57.708;12.008;2022-10-15T00:49:27;100185.63;;;10.89;100.00
48077;BME280;33854;57.708;12.008;2022-10-15T00:54:22;100184.03;;;10.86;100.00
48077;BME280;33854;57.708;12.008;2022-10-15T00:56:49;100185.78;;;10.86;100.00
48077;BME280;33854;57.708;12.008;2022-10-15T00:59:16;100179.66;;;10.87;100.00
48077;BME280;33854;57.708;12.008;2022-10-15T01:01:43;100179.56;;;10.88;100.00
48077;BME280;33854;57.708;12.008;2022-10-15T01:04:09;100176.03;;;10.90;100.00
48077;BME280;33854;57.708;12.008;2022-10-15T01:06:35;100186.47;;;10.90;100.00
48077;BME280;33854;57.708;12.008;2022-10-15T01:09:01;100177.63;;;10.92;100.00
48077;BME280;33854;57.708;12.008;2022-10-15T01:11:53;100179.38;;;10.92;100.00
48077;BME280;33854;57.708;12.008;2022-10-15T01:14:50;100173.16;;;10.94;100.00
48077;BME280;33854;57.708;12.008;2022-10-15T01:17:22;100161.97;;;10.92;100.00
48077;BME280;33854;57.708;12.008;2022-10-15T01:23:26;100158.84;;;11.01;100.00
48077;BME280;33854;57.708;12.008;2022-10-15T01:25:47;100152.50;;;11.05;100.00
48077;BME280;33854;57.708;12.008;2022-10-15T01:31:39;100127.50;;;11.01;100.00
48077;BME280;33854;57.708;12.008;2022-10-15T01:34:39;100124.38;;;11.10;100.00
48077;BME280;33854;57.708;12.008;2022-10-15T01:39:54;100107.75;;;11.11;100.00
48077;BME280;33854;57.708;12.008;2022-10-15T01:44:55;100097.97;;;11.15;100.00
48077;BME280;33854;57.708;12.008;2022-10-15T01:47:29;100090.25;;;11.13;100.00
48077;BME280;33854;57.708;12.008;2022-10-15T01:49:59;100088.28;;;11.17;100.00
48077;BME280;33854;57.708;12.008;2022-10-15T01:52:29;100074.56;;;11.13;100.00
48077;BME280;33854;57.708;12.008;2022-10-15T01:54:55;100074.38;;;11.16;100.00
48077;BME280;33854;57.708;12.008;2022-10-15T01:57:23;100061.59;;;11.12;100.00
48077;BME280;33854;57.708;12.008;2022-10-15T01:59:50;100063.91;;;11.16;100.00
48077;BME280;33854;57.708;12.008;2022-10-15T02:02:16;100057.69;;;11.19;100.00
48077;BME280;33854;57.708;12.008;2022-10-15T02:04:42;100066.28;;;11.21;100.00
48077;BME280;33854;57.708;12.008;2022-10-15T02:07:14;100060.22;;;11.20;100.00
48077;BME280;33854;57.708;12.008;2022-10-15T02:18:09;100037.16;;;11.13;100.00
48077;BME280;33854;57.708;12.008;2022-10-15T02:23:27;100023.44;;;11.09;100.00
48077;BME280;33854;57.708;12.008;2022-10-15T02:25:55;100013.75;;;11.11;100.00
48077;BME280;33854;57.708;12.008;2022-10-15T02:28:25;100018.88;;;11.13;100.00
48077;BME280;33854;57.708;12.008;2022-10-15T02:30:52;100006.56;;;11.15;100.00
48077;BME280;33854;57.708;12.008;2022-10-15T02:33:20;100004.63;;;11.18;100.00
48077;BME280;33854;57.708;12.008;2022-10-15T02:35:48;100009.47;;;11.24;100.00
48077;BME280;33854;57.708;12.008;2022-10-15T02:38:18;100015.44;;;11.26;100.00
48077;BME280;33854;57.708;12.008;2022-10-15T02:40:45;100011.31;;;11.22;100.00
48077;BME280;33854;57.708;12.008;2022-10-15T02:43:13;100015.25;;;11.29;100.00
48077;BME280;33854;57.708;12.008;2022-10-15T02:45:39;100014.34;;;11.30;100.00
48077;BME280;33854;57.708;12.008;2022-10-15T02:48:05;100009.13;;;11.30;100.00
48077;BME280;33854;57.708;12.008;2022-10-15T02:50:31;100007.44;;;11.29;100.00
48077;BME280;33854;57.708;12.008;2022-10-15T02:52:56;100013.50;;;11.30;100.00
48077;BME280;33854;57.708;12.008;2022-10-15T02:55:21;100006.41;;;11.32;100.00
48077;BME280;33854;57.708;12.008;2022-10-15T02:57:47;100017.69;;;11.32;100.00
48077;BME280;33854;57.708;12.008;2022-10-15T03:00:12;100017.59;;;11.34;100.00
48077;BME280;33854;57.708;12.008;2022-10-15T03:02:38;100018.44;;;11.34;100.00
48077;BME280;33854;57.708;12.008;2022-10-15T03:05:04;100003.91;;;11.30;100.00
48077;BME280;33854;57.708;12.008;2022-10-15T03:07:29;100015.63;;;11.37;100.00
48077;BME280;33854;57.708;12.008;2022-10-15T03:09:54;99983.53;;;11.21;100.00
48077;BME280;33854;57.708;12.008;2022-10-15T03:12:20;100007.78;;;11.37;100.00
48077;BME280;33854;57.708;12.008;2022-10-15T03:14:48;100003.31;;;11.39;100.00
48077;BME280;33854;57.708;12.008;2022-10-15T03:17:13;99998.09;;;11.39;100.00
48077;BME280;33854;57.708;12.008;2022-10-15T03:19:39;100004.06;;;11.41;100.00
48077;BME280;33854;57.708;12.008;2022-10-15T03:22:05;99992.69;;;11.42;100.00
48077;BME280;33854;57.708;12.008;2022-10-15T03:24:30;99982.34;;;11.41;100.00
48077;BME280;33854;57.708;12.008;2022-10-15T03:26:55;99981.50;;;11.40;100.00
48077;BME280;33854;57.708;12.008;2022-10-15T03:29:21;99984.84;;;11.42;100.00
48077;BME280;33854;57.708;12.008;2022-10-15T03:31:46;99985.69;;;11.43;100.00
48077;BME280;33854;57.708;12.008;2022-10-15T03:34:11;99978.56;;;11.45;100.00
48077;BME280;33854;57.708;12.008;2022-10-15T03:36:37;99971.50;;;11.47;100.00
48077;BME280;33854;57.708;12.008;2022-10-15T03:39:02;99968.97;;;11.45;100.00
48077;BME280;33854;57.708;12.008;2022-10-15T03:41:28;99971.59;;;11.45;100.00
48077;BME280;33854;57.708;12.008;2022-10-15T03:43:53;99957.31;;;11.37;100.00
48077;BME280;33854;57.708;12.008;2022-10-15T03:46:18;99964.78;;;11.43;100.00
48077;BME280;33854;57.708;12.008;2022-10-15T03:48:48;99969.47;;;11.38;100.00
48077;BME280;33854;57.708;12.008;2022-10-15T03:51:14;99970.56;;;11.34;100.00
48077;BME280;33854;57.708;12.008;2022-10-15T03:53:39;99974.22;;;11.31;100.00
48077;BME280;33854;57.708;12.008;2022-10-15T03:56:05;99992.78;;;11.27;100.00
48077;BME280;33854;57.708;12.008;2022-10-15T03:58:31;99986.91;;;11.23;100.00
48077;BME280;33854;57.708;12.008;2022-10-15T04:00:56;99988.78;;;11.21;100.00
48077;BME280;33854;57.708;12.008;2022-10-15T04:03:22;100000.25;;;11.19;100.00
48077;BME280;33854;57.708;12.008;2022-10-15T04:05:51;100013.38;;;11.17;100.00
48077;BME280;33854;57.708;12.008;2022-10-15T04:08:17;100019.91;;;11.10;100.00
48077;BME280;33854;57.708;12.008;2022-10-15T04:10:42;100049.28;;;11.14;100.00
48077;BME280;33854;57.708;12.008;2022-10-15T04:13:08;100075.50;;;11.12;100.00
48077;BME280;33854;57.708;12.008;2022-10-15T04:15:33;100088.56;;;11.12;100.00
48077;BME280;33854;57.708;12.008;2022-10-15T04:17:59;100080.72;;;11.12;100.00
48077;BME280;33854;57.708;12.008;2022-10-15T04:20:24;100083.31;;;11.12;100.00
48077;BME280;33854;57.708;12.008;2022-10-15T04:22:50;100093.09;;;11.09;100.00
48077;BME280;33854;57.708;12.008;2022-10-15T04:25:15;100101.69;;;11.11;100.00
48077;BME280;33854;57.708;12.008;2022-10-15T04:27:41;100097.75;;;11.04;100.00
48077;BME280;33854;57.708;12.008;2022-10-15T04:30:07;100117.44;;;11.09;100.00
48077;BME280;33854;57.708;12.008;2022-10-15T04:32:33;100124.53;;;11.07;100.00
48077;BME280;33854;57.708;12.008;2022-10-15T04:34:58;100122.56;;;11.11;100.00
48077;BME280;33854;57.708;12.008;2022-10-15T04:37:23;100129.50;;;11.12;100.00
48077;BME280;33854;57.708;12.008;2022-10-15T04:39:49;100133.13;;;11.09;100.00
48077;BME280;33854;57.708;12.008;2022-10-15T04:42:14;100131.34;;;11.10;100.00
48077;BME280;33854;57.708;12.008;2022-10-15T04:44:39;100138.16;;;11.12;100.00
48077;BME280;33854;57.708;12.008;2022-10-15T04:47:05;100137.44;;;11.10;100.00
48077;BME280;33854;57.708;12.008;2022-10-15T04:49:30;100140.84;;;11.11;100.00
48077;BME280;33854;57.708;12.008;2022-10-15T04:51:56;100146.06;;;11.11;100.00
48077;BME280;33854;57.708;12.008;2022-10-15T04:54:21;100136.59;;;11.10;100.00
48077;BME280;33854;57.708;12.008;2022-10-15T04:56:47;100125.28;;;11.09;100.00
48077;BME280;33854;57.708;12.008;2022-10-15T04:59:12;100111.50;;;11.07;100.00
48077;BME280;33854;57.708;12.008;2022-10-15T05:01:37;100091.41;;;11.08;100.00
48077;BME280;33854;57.708;12.008;2022-10-15T05:04:03;100073.06;;;11.09;100.00
48077;BME280;33854;57.708;12.008;2022-10-15T05:06:28;100018.22;;;11.09;100.00
48077;BME280;33854;57.708;12.008;2022-10-15T05:08:53;99984.28;;;11.09;100.00
48077;BME280;33854;57.708;12.008;2022-10-15T05:11:22;99969.47;;;11.10;100.00
48077;BME280;33854;57.708;12.008;2022-10-15T05:13:48;99941.56;;;11.10;100.00
48077;BME280;33854;57.708;12.008;2022-10-15T05:18:40;99905.28;;;11.06;100.00
48077;BME280;33854;57.708;12.008;2022-10-15T05:21:06;99894.00;;;11.05;100.00
48077;BME280;33854;57.708;12.008;2022-10-15T05:23:32;99856.63;;;11.05;100.00
48077;BME280;33854;57.708;12.008;2022-10-15T05:26:02;99848.69;;;11.06;100.00
48077;BME280;33854;57.708;12.008;2022-10-15T05:28:28;99823.41;;;11.07;100.00
48077;BME280;33854;57.708;12.008;2022-10-15T05:30:54;99802.41;;;11.08;100.00
48077;BME280;33854;57.708;12.008;2022-10-15T05:33:19;99795.97;;;11.14;100.00
48077;BME280;33854;57.708;12.008;2022-10-15T05:35:45;99767.69;;;11.20;100.00
48077;BME280;33854;57.708;12.008;2022-10-15T05:38:10;99766.47;;;11.26;100.00
48077;BME280;33854;57.708;12.008;2022-10-15T05:40:36;99750.31;;;11.33;100.00
48077;BME280;33854;57.708;12.008;2022-10-15T05:43:01;99724.16;;;11.48;100.00
48077;BME280;33854;57.708;12.008;2022-10-15T05:45:26;99705.75;;;11.49;100.00
48077;BME280;33854;57.708;12.008;2022-10-15T05:47:55;99693.84;;;11.58;100.00
48077;BME280;33854;57.708;12.008;2022-10-15T05:50:21;99684.13;;;11.60;100.00
48077;BME280;33854;57.708;12.008;2022-10-15T05:52:47;99686.53;;;11.63;100.00
48077;BME280;33854;57.708;12.008;2022-10-15T05:55:12;99664.69;;;11.64;100.00
48077;BME280;33854;57.708;12.008;2022-10-15T05:57:38;99651.63;;;11.64;100.00
48077;BME280;33854;57.708;12.008;2022-10-15T06:00:07;99642.75;;;11.66;100.00
48077;BME280;33854;57.708;12.008;2022-10-15T06:02:33;99635.75;;;11.67;100.00
48077;BME280;33854;57.708;12.008;2022-10-15T06:04:58;99602.28;;;11.59;100.00
48077;BME280;33854;57.708;12.008;2022-10-15T06:07:24;99600.00;;;11.67;100.00
48077;BME280;33854;57.708;12.008;2022-10-15T06:09:49;99582.63;;;11.66;100.00
48077;BME280;33854;57.708;12.008;2022-10-15T06:12:14;99574.69;;;11.68;100.00
48077;BME280;33854;57.708;12.008;2022-10-15T06:14:40;99558.94;;;11.69;100.00
48077;BME280;33854;57.708;12.008;2022-10-15T06:17:05;99549.38;;;11.68;100.00
48077;BME280;33854;57.708;12.008;2022-10-15T06:19:30;99541.75;;;11.65;100.00
48077;BME280;33854;57.708;12.008;2022-10-15T06:21:56;99538.03;;;11.69;100.00
48077;BME280;33854;57.708;12.008;2022-10-15T06:24:21;99542.38;;;11.69;100.00
48077;BME280;33854;57.708;12.008;2022-10-15T06:26:47;99528.47;;;11.68;100.00
48077;BME280;33854;57.708;12.008;2022-10-15T06:29:12;99537.28;;;11.67;100.00
48077;BME280;33854;57.708;12.008;2022-10-15T06:31:38;99517.28;;;11.66;100.00
48077;BME280;33854;57.708;12.008;2022-10-15T06:34:03;99508.63;;;11.66;100.00
48077;BME280;33854;57.708;12.008;2022-10-15T06:36:28;99509.38;;;11.68;100.00
48077;BME280;33854;57.708;12.008;2022-10-15T06:38:54;99497.22;;;11.67;100.00
48077;BME280;33854;57.708;12.008;2022-10-15T06:41:19;99493.78;;;11.66;100.00
48077;BME280;33854;57.708;12.008;2022-10-15T06:43:48;99499.72;;;11.68;100.00
48077;BME280;33854;57.708;12.008;2022-10-15T06:46:13;99475.22;;;11.71;100.00
48077;BME280;33854;57.708;12.008;2022-10-15T06:48:39;99469.97;;;11.71;100.00
48077;BME280;33854;57.708;12.008;2022-10-15T06:51:04;99474.88;;;11.75;100.00
48077;BME280;33854;57.708;12.008;2022-10-15T06:53:30;99456.56;;;11.75;100.00
48077;BME280;33854;57.708;12.008;2022-10-15T06:55:57;99458.97;;;11.78;100.00
48077;BME280;33854;57.708;12.008;2022-10-15T06:58:23;99440.06;;;11.75;100.00
48077;BME280;33854;57.708;12.008;2022-10-15T07:00:48;99445.25;;;11.87;100.00
48077;BME280;33854;57.708;12.008;2022-10-15T07:03:14;99427.28;;;11.83;100.00
48077;BME280;33854;57.708;12.008;2022-10-15T07:05:39;99415.16;;;11.82;100.00
48077;BME280;33854;57.708;12.008;2022-10-15T07:08:04;99414.41;;;11.80;100.00
48077;BME280;33854;57.708;12.008;2022-10-15T07:10:30;99412.44;;;11.83;100.00
48077;BME280;33854;57.708;12.008;2022-10-15T07:12:58;99403.09;;;11.92;100.00
48077;BME280;33854;57.708;12.008;2022-10-15T07:15:24;99393.13;;;11.97;100.00
48077;BME280;33854;57.708;12.008;2022-10-15T07:17:51;99378.06;;;12.00;100.00
48077;BME280;33854;57.708;12.008;2022-10-15T07:20:18;99371.97;;;12.00;100.00
48077;BME280;33854;57.708;12.008;2022-10-15T07:22:43;99367.50;;;12.02;100.00
48077;BME280;33854;57.708;12.008;2022-10-15T07:25:09;99345.69;;;11.90;100.00
48077;BME280;33854;57.708;12.008;2022-10-15T07:27:36;99334.19;;;11.93;100.00
48077;BME280;33854;57.708;12.008;2022-10-15T07:30:03;99313.97;;;11.95;100.00
48077;BME280;33854;57.708;12.008;2022-10-15T07:32:28;99295.56;;;11.96;100.00
48077;BME280;33854;57.708;12.008;2022-10-15T07:34:54;99292.84;;;11.98;100.00
48077;BME280;33854;57.708;12.008;2022-10-15T07:37:19;99287.16;;;12.04;100.00
48077;BME280;33854;57.708;12.008;2022-10-15T07:39:45;99282.03;;;12.02;100.00
48077;BME280;33854;57.708;12.008;2022-10-15T07:42:10;99279.91;;;12.08;100.00
48077;BME280;33854;57.708;12.008;2022-10-15T07:44:35;99277.31;;;12.08;100.00
48077;BME280;33854;57.708;12.008;2022-10-15T07:47:01;99279.56;;;12.12;100.00
48077;BME280;33854;57.708;12.008;2022-10-15T07:49:26;99277.66;;;12.14;100.00
48077;BME280;33854;57.708;12.008;2022-10-15T07:51:51;99285.19;;;12.19;100.00
48077;BME280;33854;57.708;12.008;2022-10-15T07:54:17;99294.56;;;12.21;100.00
48077;BME280;33854;57.708;12.008;2022-10-15T07:56:42;99302.19;;;12.24;100.00
48077;BME280;33854;57.708;12.008;2022-10-15T07:59:08;99301.72;;;12.30;100.00
48077;BME280;33854;57.708;12.008;2022-10-15T08:01:33;99314.06;;;12.28;100.00
48077;BME280;33854;57.708;12.008;2022-10-15T08:03:58;99338.13;;;12.33;100.00
48077;BME280;33854;57.708;12.008;2022-10-15T08:06:24;99338.56;;;12.27;100.00
48077;BME280;33854;57.708;12.008;2022-10-15T08:08:49;99348.59;;;12.33;100.00
48077;BME280;33854;57.708;12.008;2022-10-15T08:11:15;99379.28;;;12.42;100.00
48077;BME280;33854;57.708;12.008;2022-10-15T08:13:41;99394.03;;;12.43;100.00
48077;BME280;33854;57.708;12.008;2022-10-15T08:16:09;99421.69;;;12.58;100.00
48077;BME280;33854;57.708;12.008;2022-10-15T08:18:35;99467.88;;;12.71;100.00
48077;BME280;33854;57.708;12.008;2022-10-15T08:21:02;99496.53;;;12.72;100.00
48077;BME280;33854;57.708;12.008;2022-10-15T08:23:27;99530.78;;;12.69;100.00
48077;BME280;33854;57.708;12.008;2022-10-15T08:25:53;99575.47;;;12.79;100.00
48077;BME280;33854;57.708;12.008;2022-10-15T08:28:18;99618.75;;;12.72;100.00
48077;BME280;33854;57.708;12.008;2022-10-15T08:30:43;99657.72;;;12.64;100.00
48077;BME280;33854;57.708;12.008;2022-10-15T08:33:09;99686.31;;;12.67;100.00
48077;BME280;33854;57.708;12.008;2022-10-15T08:35:34;99733.19;;;12.70;100.00
48077;BME280;33854;57.708;12.008;2022-10-15T08:38:03;99757.69;;;12.81;100.00
48077;BME280;33854;57.708;12.008;2022-10-15T08:40:29;99798.44;;;12.73;100.00
48077;BME280;33854;57.708;12.008;2022-10-15T08:42:54;99846.50;;;12.72;100.00
48077;BME280;33854;57.708;12.008;2022-10-15T08:45:28;99889.22;;;12.72;100.00
48077;BME280;33854;57.708;12.008;2022-10-15T08:48:02;99926.50;;;12.76;100.00
48077;BME280;33854;57.708;12.008;2022-10-15T08:53:16;100026.31;;;12.71;100.00
48077;BME280;33854;57.708;12.008;2022-10-15T08:55:44;100079.88;;;12.66;100.00
48077;BME280;33854;57.708;12.008;2022-10-15T09:00:57;100207.78;;;12.72;100.00
48077;BME280;33854;57.708;12.008;2022-10-15T09:03:33;100247.63;;;12.77;100.00
48077;BME280;33854;57.708;12.008;2022-10-15T09:06:08;100270.53;;;12.87;100.00
48077;BME280;33854;57.708;12.008;2022-10-15T09:11:21;100302.47;;;13.06;100.00
48077;BME280;33854;57.708;12.008;2022-10-15T09:13:51;100315.34;;;13.11;100.00
48077;BME280;33854;57.708;12.008;2022-10-15T09:16:21;100338.28;;;13.06;100.00
48077;BME280;33854;57.708;12.008;2022-10-15T09:18:50;100350.84;;;13.29;100.00
48077;BME280;33854;57.708;12.008;2022-10-15T09:21:18;100358.84;;;13.40;100.00
48077;BME280;33854;57.708;12.008;2022-10-15T09:23:44;100377.97;;;13.42;100.00
48077;BME280;33854;57.708;12.008;2022-10-15T09:26:21;100390.41;;;13.39;100.00
48077;BME280;33854;57.708;12.008;2022-10-15T09:28:52;100410.91;;;13.46;100.00
48077;BME280;33854;57.708;12.008;2022-10-15T09:31:24;100425.69;;;13.61;100.00
48077;BME280;33854;57.708;12.008;2022-10-15T09:34:01;100463.41;;;13.73;100.00
48077;BME280;33854;57.708;12.008;2022-10-15T09:44:18;100566.41;;;13.89;100.00
48077;BME280;33854;57.708;12.008;2022-10-15T09:46:49;100591.63;;;14.06;100.00
48077;BME280;33854;57.708;12.008;2022-10-15T09:49:19;100621.66;;;14.43;100.00
48077;BME280;33854;57.708;12.008;2022-10-15T09:52:10;100669.56;;;14.32;100.00
48077;BME280;33854;57.708;12.008;2022-10-15T09:55:04;100692.72;;;13.97;100.00
48077;BME280;33854;57.708;12.008;2022-10-15T09:57:29;100699.53;;;13.72;100.00
48077;BME280;33854;57.708;12.008;2022-10-15T09:59:57;100688.44;;;13.52;100.00
48077;BME280;33854;57.708;12.008;2022-10-15T10:02:26;100704.34;;;13.49;100.00
48077;BME280;33854;57.708;12.008;2022-10-15T10:04:52;100690.50;;;13.32;100.00
48077;BME280;33854;57.708;12.008;2022-10-15T10:07:35;100667.91;;;13.15;100.00
48077;BME280;33854;57.708;12.008;2022-10-15T10:10:06;100644.59;;;13.10;100.00
48077;BME280;33854;57.708;12.008;2022-10-15T10:12:46;100634.63;;;13.17;100.00
48077;BME280;33854;57.708;12.008;2022-10-15T10:17:56;100685.41;;;13.44;100.00
48077;BME280;33854;57.708;12.008;2022-10-15T10:20:23;100700.25;;;13.30;100.00
48077;BME280;33854;57.708;12.008;2022-10-15T10:27:52;100733.25;;;13.18;100.00
48077;BME280;33854;57.708;12.008;2022-10-15T10:30:18;100770.75;;;13.03;100.00
48077;BME280;33854;57.708;12.008;2022-10-15T10:32:44;100796.63;;;13.09;100.00
48077;BME280;33854;57.708;12.008;2022-10-15T10:35:22;100796.13;;;13.18;100.00
48077;BME280;33854;57.708;12.008;2022-10-15T10:37:48;100782.25;;;13.32;100.00
48077;BME280;33854;57.708;12.008;2022-10-15T10:40:27;100787.13;;;13.53;100.00
48077;BME280;33854;57.708;12.008;2022-10-15T10:46:00;100810.09;;;13.80;100.00
48077;BME280;33854;57.708;12.008;2022-10-15T10:48:27;100845.22;;;13.61;100.00
48077;BME280;33854;57.708;12.008;2022-10-15T10:53:45;100844.94;;;13.82;100.00
48077;BME280;33854;57.708;12.008;2022-10-15T10:56:12;100853.75;;;14.10;100.00
48077;BME280;33854;57.708;12.008;2022-10-15T10:58:40;100881.72;;;13.96;100.00
48077;BME280;33854;57.708;12.008;2022-10-15T11:01:10;100905.72;;;14.04;100.00
48077;BME280;33854;57.708;12.008;2022-10-15T11:03:39;100930.88;;;14.08;100.00
48077;BME280;33854;57.708;12.008;2022-10-15T11:09:25;100939.19;;;13.85;100.00
48077;BME280;33854;57.708;12.008;2022-10-15T11:12:13;100915.97;;;14.08;100.00
48077;BME280;33854;57.708;12.008;2022-10-15T11:22:55;100982.56;;;14.21;100.00
48077;BME280;33854;57.708;12.008;2022-10-15T11:25:50;100994.31;;;14.30;100.00
48077;BME280;33854;57.708;12.008;2022-10-15T11:39:44;100974.78;;;14.36;100.00
48077;BME280;33854;57.708;12.008;2022-10-15T11:45:21;101034.94;;;15.28;100.00
48077;BME280;33854;57.708;12.008;2022-10-15T11:48:15;101022.19;;;15.64;100.00
48077;BME280;33854;57.708;12.008;2022-10-15T11:50:54;101043.09;;;16.35;100.00
48077;BME280;33854;57.708;12.008;2022-10-15T11:56:03;101130.50;;;16.27;100.00
48077;BME280;33854;57.708;12.008;2022-10-15T11:58:36;101147.03;;;16.58;100.00
48077;BME280;33854;57.708;12.008;2022-10-15T12:01:32;101158.84;;;16.79;100.00
48077;BME280;33854;57.708;12.008;2022-10-15T12:04:38;101151.00;;;17.17;100.00
48077;BME280;33854;57.708;12.008;2022-10-15T12:06:57;101134.63;;;17.89;100.00
48077;BME280;33854;57.708;12.008;2022-10-15T12:09:33;101064.31;;;18.48;100.00
48077;BME280;33854;57.708;12.008;2022-10-15T12:12:03;100473.13;;;18.70;100.00
48077;BME280;33854;57.708;12.008;2022-10-15T12:14:45;99468.34;;;18.12;100.00
48077;BME280;33854;57.708;12.008;2022-10-15T12:20:17;99930.06;;;17.77;100.00
48077;BME280;33854;57.708;12.008;2022-10-15T12:28:23;99927.63;;;18.81;100.00
48077;BME280;33854;57.708;12.008;2022-10-15T12:31:04;99942.53;;;18.63;100.00
48077;BME280;33854;57.708;12.008;2022-10-15T12:33:36;99938.75;;;18.65;100.00
48077;BME280;33854;57.708;12.008;2022-10-15T12:36:25;99936.53;;;19.36;100.00
48077;BME280;33854;57.708;12.008;2022-10-15T12:39:21;99957.13;;;19.32;100.00
48077;BME280;33854;57.708;12.008;2022-10-15T12:41:47;99926.75;;;19.46;100.00
48077;BME280;33854;57.708;12.008;2022-10-15T12:44:33;99946.84;;;19.20;100.00
48077;BME280;33854;57.708;12.008;2022-10-15T12:46:59;99951.44;;;18.52;100.00
48077;BME280;33854;57.708;12.008;2022-10-15T12:51:51;99947.81;;;18.82;100.00
48077;BME280;33854;57.708;12.008;2022-10-15T12:54:45;99940.56;;;18.94;100.00
48077;BME280;33854;57.708;12.008;2022-10-15T12:59:57;99930.16;;;18.73;100.00
48077;BME280;33854;57.708;12.008;2022-10-15T13:02:49;99924.88;;;18.73;100.00
48077;BME280;33854;57.708;12.008;2022-10-15T13:05:27;99906.69;;;19.07;100.00
48077;BME280;33854;57.708;12.008;2022-10-15T13:07:54;99925.84;;;18.24;100.00
48077;BME280;33854;57.708;12.008;2022-10-15T13:10:27;99906.66;;;18.41;100.00
48077;BME280;33854;57.708;12.008;2022-10-15T13:12:56;99880.66;;;17.49;100.00
48077;BME280;33854;57.708;12.008;2022-10-15T13:15:24;99793.91;;;16.66;100.00
48077;BME280;33854;57.708;12.008;2022-10-15T13:17:50;99750.25;;;16.73;100.00
48077;BME280;33854;57.708;12.008;2022-10-15T13:23:07;99670.44;;;16.52;100.00
48077;BME280;33854;57.708;12.008;2022-10-15T13:25:32;99690.06;;;17.76;100.00
48077;BME280;33854;57.708;12.008;2022-10-15T13:27:58;99724.44;;;18.12;100.00
48077;BME280;33854;57.708;12.008;2022-10-15T13:30:23;99748.66;;;17.98;100.00
48077;BME280;33854;57.708;12.008;2022-10-15T13:32:51;99738.50;;;17.94;100.00
48077;BME280;33854;57.708;12.008;2022-10-15T13:35:37;99751.19;;;18.37;100.00
48077;BME280;33854;57.708;12.008;2022-10-15T13:38:03;99771.56;;;17.88;100.00
48077;BME280;33854;57.708;12.008;2022-10-15T13:40:30;99753.19;;;17.29;100.00
48077;BME280;33854;57.708;12.008;2022-10-15T13:43:05;99718.44;;;17.05;100.00
48077;BME280;33854;57.708;12.008;2022-10-15T13:45:32;99708.75;;;16.56;100.00
48077;BME280;33854;57.708;12.008;2022-10-15T13:47:58;99681.44;;;16.57;100.00
48077;BME280;33854;57.708;12.008;2022-10-15T13:50:28;99652.44;;;16.17;100.00
48077;BME280;33854;57.708;12.008;2022-10-15T13:55:31;99656.88;;;17.63;100.00
48077;BME280;33854;57.708;12.008;2022-10-15T13:58:02;99645.16;;;16.00;100.00
48077;BME280;33854;57.708;12.008;2022-10-15T14:00:32;99569.88;;;15.58;100.00
48077;BME280;33854;57.708;12.008;2022-10-15T14:03:22;99363.41;;;16.78;100.00
48077;BME280;33854;57.708;12.008;2022-10-15T14:05:49;99312.59;;;17.23;100.00
48077;BME280;33854;57.708;12.008;2022-10-15T14:08:26;99301.88;;;16.70;100.00
48077;BME280;33854;57.708;12.008;2022-10-15T14:10:54;99275.97;;;16.46;100.00
48077;BME280;33854;57.708;12.008;2022-10-15T14:13:21;99215.25;;;18.00;100.00
48077;BME280;33854;57.708;12.008;2022-10-15T14:18:27;99434.50;;;20.14;100.00
48077;BME280;33854;57.708;12.008;2022-10-15T14:20:54;99561.50;;;19.56;100.00
48077;BME280;33854;57.708;12.008;2022-10-15T14:23:22;99551.69;;;19.48;100.00
48077;BME280;33854;57.708;12.008;2022-10-15T14:26:06;99588.78;;;19.82;100.00
48077;BME280;33854;57.708;12.008;2022-10-15T14:28:33;99618.19;;;19.71;100.00
48077;BME280;33854;57.708;12.008;2022-10-15T14:30:59;99623.41;;;18.74;100.00
48077;BME280;33854;57.708;12.008;2022-10-15T14:38:28;99509.81;;;16.90;100.00